Time;durP1;ratioP1;P1;durP2;ratioP2;P2;SDS_P1;SDS_P2;PMS_P1;PMS_P2;Temp;Humidity;BMP_temperature;BMP_pressure;BME280_temperature;BME280_humidity;BME280_pressure;Samples;Min_cycle;Max_cycle;Signal;HPM_P1;HPM_P2
2022/06/30 00:01:18;;;;;;;3.28;2.03;;;25.00;99.90;;;;;;4154806;28;20217;-82
2022/06/30 00:03:20;;;;;;;3.15;1.80;;;25.00;99.90;;;;;;4161167;28;20212;-81
2022/06/30 00:05:23;;;;;;;2.80;1.75;;;24.90;99.90;;;;;;4157736;28;20238;-82
2022/06/30 00:07:25;;;;;;;3.97;2.03;;;24.90;99.90;;;;;;4160249;28;20221;-82
2022/06/30 00:09:27;;;;;;;3.10;2.00;;;24.90;99.90;;;;;;4149859;28;20232;-82
2022/06/30 00:11:30;;;;;;;2.83;2.10;;;24.90;99.90;;;;;;4163879;28;20275;-82
2022/06/30 00:13:32;;;;;;;3.33;2.10;;;24.90;99.90;;;;;;4150702;28;20279;-81
2022/06/30 00:15:35;;;;;;;3.13;1.90;;;24.90;99.90;;;;;;4154229;28;20708;-82
2022/06/30 00:17:39;;;;;;;3.22;2.00;;;24.90;99.90;;;;;;4150601;28;20620;-82
2022/06/30 00:19:42;;;;;;;3.63;2.05;;;24.90;99.90;;;;;;4160180;28;20244;-82
2022/06/30 00:21:44;;;;;;;3.15;2.05;;;24.90;99.90;;;;;;4158179;28;20261;-82
2022/06/30 00:23:46;;;;;;;2.72;2.08;;;24.80;99.90;;;;;;4151192;28;20932;-82
2022/06/30 00:25:49;;;;;;;3.28;2.30;;;24.80;99.90;;;;;;4152821;28;20267;-81
2022/06/30 00:27:52;;;;;;;3.15;2.05;;;24.90;99.90;;;;;;4161993;28;20529;-81
2022/06/30 00:29:54;;;;;;;2.38;1.70;;;24.90;99.90;;;;;;4155239;28;20271;-82
2022/06/30 00:31:56;;;;;;;4.43;2.08;;;24.90;99.90;;;;;;4162070;28;20217;-82
2022/06/30 00:34:00;;;;;;;2.55;1.67;;;24.80;99.90;;;;;;4154318;28;20271;-82
2022/06/30 00:36:02;;;;;;;3.10;2.08;;;24.80;99.90;;;;;;4155597;28;20233;-81
2022/06/30 00:38:05;;;;;;;2.78;1.80;;;24.80;99.90;;;;;;4152427;28;21065;-82
2022/06/30 00:40:08;;;;;;;2.90;1.65;;;24.80;99.90;;;;;;4157100;28;20727;-82
2022/06/30 00:42:10;;;;;;;2.83;1.80;;;24.80;99.90;;;;;;4165048;28;20409;-82
2022/06/30 00:44:13;;;;;;;2.80;1.70;;;24.80;99.90;;;;;;4158252;28;20225;-82
2022/06/30 00:46:16;;;;;;;2.60;1.75;;;24.80;99.90;;;;;;4149923;28;20286;-81
2022/06/30 00:48:19;;;;;;;2.13;1.63;;;24.70;99.90;;;;;;4163029;28;20278;-81
2022/06/30 00:50:23;;;;;;;3.88;1.90;;;24.80;99.90;;;;;;4160626;28;20224;-81
2022/06/30 00:52:26;;;;;;;2.70;1.98;;;24.70;99.90;;;;;;4157337;28;20634;-82
2022/06/30 00:54:30;;;;;;;2.75;1.80;;;24.70;99.90;;;;;;4154599;28;20665;-81
2022/06/30 00:56:34;;;;;;;2.95;1.95;;;24.70;99.90;;;;;;4159266;28;20278;-82
2022/06/30 00:58:39;;;;;;;4.05;1.95;;;24.70;99.90;;;;;;4157572;28;20220;-81
2022/06/30 01:00:42;;;;;;;3.10;2.00;;;24.70;99.90;;;;;;4158488;28;20228;-82
2022/06/30 01:02:45;;;;;;;3.42;2.05;;;24.70;99.90;;;;;;4164855;28;20212;-81
2022/06/30 01:04:48;;;;;;;2.20;1.65;;;24.70;99.90;;;;;;4157246;28;20213;-82
2022/06/30 01:06:54;;;;;;;3.45;1.77;;;24.70;99.90;;;;;;4151227;28;20723;-82
2022/06/30 01:08:57;;;;;;;4.50;1.77;;;24.70;99.90;;;;;;4153243;28;20286;-82
2022/06/30 01:13:19;;;;;;;2.20;1.77;;;24.70;99.90;;;;;;4149072;28;20209;-81
2022/06/30 01:15:22;;;;;;;3.10;1.90;;;24.70;99.90;;;;;;4154887;28;20491;-81
2022/06/30 01:17:24;;;;;;;2.22;1.70;;;24.70;99.90;;;;;;4158217;28;20221;-82
2022/06/30 01:19:27;;;;;;;2.95;1.70;;;24.70;99.90;;;;;;4147397;28;20237;-81
2022/06/30 01:21:31;;;;;;;3.10;2.10;;;24.70;99.90;;;;;;4153908;28;20221;-82
2022/06/30 01:23:33;;;;;;;3.05;1.90;;;24.60;99.90;;;;;;4163074;28;20212;-82
2022/06/30 01:25:36;;;;;;;2.75;1.52;;;24.70;99.90;;;;;;4158983;28;20714;-81
2022/06/30 01:27:38;;;;;;;1.98;1.73;;;24.60;99.90;;;;;;4153811;28;20681;-82
2022/06/30 01:29:40;;;;;;;3.88;1.60;;;24.60;99.90;;;;;;4152353;28;20283;-81
2022/06/30 01:31:43;;;;;;;3.33;1.70;;;24.60;99.90;;;;;;4148769;28;20224;-81
2022/06/30 01:33:45;;;;;;;4.50;2.13;;;24.60;99.90;;;;;;4155545;28;20224;-82
2022/06/30 01:35:47;;;;;;;3.45;1.70;;;24.60;99.90;;;;;;4156739;28;20221;-82
2022/06/30 01:37:53;;;;;;;3.67;1.80;;;24.60;99.90;;;;;;4153188;28;20275;-81
2022/06/30 01:39:55;;;;;;;2.65;2.03;;;24.60;99.90;;;;;;4149361;28;20233;-82
2022/06/30 01:41:57;;;;;;;2.55;2.05;;;24.60;99.90;;;;;;4155074;28;20288;-81
2022/06/30 01:44:00;;;;;;;2.38;1.75;;;24.60;99.90;;;;;;4156473;28;20213;-82
2022/06/30 01:46:03;;;;;;;3.42;1.75;;;24.60;99.90;;;;;;4152622;28;20217;-81
2022/06/30 01:48:06;;;;;;;2.85;1.60;;;24.60;99.90;;;;;;4149733;28;20255;-81
2022/06/30 01:50:11;;;;;;;3.10;1.80;;;24.60;99.90;;;;;;4147969;28;20217;-81
2022/06/30 01:52:13;;;;;;;2.60;2.08;;;24.60;99.90;;;;;;4158078;28;20225;-81
2022/06/30 01:54:18;;;;;;;2.10;1.55;;;24.60;99.90;;;;;;4148833;28;20264;-81
2022/06/30 01:56:20;;;;;;;2.25;1.80;;;24.60;99.90;;;;;;4159198;28;20216;-82
2022/06/30 01:58:22;;;;;;;2.72;1.80;;;24.60;99.90;;;;;;4153624;28;20263;-81
2022/06/30 02:00:26;;;;;;;3.00;1.77;;;24.60;99.90;;;;;;4158943;28;20318;-81
2022/06/30 02:02:28;;;;;;;2.40;2.03;;;24.50;99.90;;;;;;4155883;28;20221;-81
2022/06/30 02:04:50;;;;;;;3.03;1.73;;;24.50;99.90;;;;;;4153017;28;20263;-81
2022/06/30 02:06:53;;;;;;;2.25;1.40;;;24.50;99.90;;;;;;4152609;28;20216;-81
2022/06/30 02:08:55;;;;;;;1.90;1.70;;;24.60;99.90;;;;;;4159139;28;20232;-81
2022/06/30 02:10:59;;;;;;;2.13;1.55;;;24.50;99.90;;;;;;4162379;28;20213;-82
2022/06/30 02:13:01;;;;;;;3.20;2.03;;;24.50;99.90;;;;;;4161004;28;20220;-81
2022/06/30 02:15:04;;;;;;;1.92;1.60;;;24.50;99.90;;;;;;4156100;28;20220;-82
2022/06/30 02:17:06;;;;;;;2.08;1.52;;;24.50;99.90;;;;;;4152813;28;20224;-81
2022/06/30 02:19:09;;;;;;;2.70;1.95;;;24.50;99.90;;;;;;4148630;28;20589;-81
2022/06/30 02:21:11;;;;;;;3.30;2.03;;;24.50;99.90;;;;;;4153814;28;20282;-81
2022/06/30 02:23:13;;;;;;;2.53;1.73;;;24.50;99.90;;;;;;4157219;28;20685;-81
2022/06/30 02:25:16;;;;;;;2.60;1.60;;;24.50;99.90;;;;;;4159255;28;20232;-81
2022/06/30 02:27:23;;;;;;;4.05;1.67;;;24.50;99.90;;;;;;4148361;28;20225;-81
2022/06/30 02:29:25;;;;;;;2.83;1.77;;;24.50;99.90;;;;;;4155436;28;20225;-81
2022/06/30 02:31:27;;;;;;;3.10;1.90;;;24.50;99.90;;;;;;4158290;28;20270;-81
2022/06/30 02:33:30;;;;;;;1.67;1.45;;;24.50;99.90;;;;;;4153111;28;20272;-81
2022/06/30 02:35:32;;;;;;;2.72;1.77;;;24.50;99.90;;;;;;4149717;28;20217;-81
2022/06/30 02:37:35;;;;;;;2.03;1.50;;;24.50;99.90;;;;;;4157031;28;20286;-81
2022/06/30 02:39:37;;;;;;;2.97;1.90;;;24.50;99.90;;;;;;4159477;28;20269;-81
2022/06/30 02:41:39;;;;;;;4.38;2.00;;;24.50;99.90;;;;;;4153764;28;20283;-81
2022/06/30 02:43:43;;;;;;;1.48;1.35;;;24.40;99.90;;;;;;4147259;28;20220;-80
2022/06/30 02:45:45;;;;;;;3.35;1.70;;;24.40;99.90;;;;;;4147919;28;20716;-81
2022/06/30 02:47:47;;;;;;;2.45;1.70;;;24.40;99.90;;;;;;4160548;28;20278;-81
2022/06/30 02:49:50;;;;;;;2.95;1.70;;;24.40;99.90;;;;;;4154468;28;20268;-81
2022/06/30 02:51:52;;;;;;;4.60;1.60;;;24.40;99.90;;;;;;4151942;28;20267;-81
2022/06/30 02:53:54;;;;;;;3.05;2.03;;;24.40;99.90;;;;;;4148489;28;20274;-81
2022/06/30 02:55:57;;;;;;;2.88;1.80;;;24.40;99.90;;;;;;4148724;28;20217;-81
2022/06/30 02:57:59;;;;;;;2.90;1.90;;;24.40;99.90;;;;;;4158755;28;20216;-81
2022/06/30 03:00:04;;;;;;;2.17;1.60;;;24.40;99.90;;;;;;4152733;28;20639;-81
2022/06/30 03:02:06;;;;;;;2.88;1.60;;;24.40;99.90;;;;;;4149897;28;20224;-81
2022/06/30 03:04:08;;;;;;;2.35;1.60;;;24.40;99.90;;;;;;4148580;28;20271;-81
2022/06/30 03:06:11;;;;;;;2.70;1.65;;;24.40;99.90;;;;;;4157996;28;20324;-81
2022/06/30 03:08:13;;;;;;;3.25;1.80;;;24.40;99.90;;;;;;4153742;28;20253;-81
2022/06/30 03:10:15;;;;;;;3.00;1.63;;;24.40;99.90;;;;;;4155348;28;20275;-82
2022/06/30 03:12:17;;;;;;;3.00;1.67;;;24.40;99.90;;;;;;4161413;28;20228;-82
2022/06/30 03:14:20;;;;;;;2.83;1.50;;;24.30;99.90;;;;;;4157722;28;20707;-82
2022/06/30 03:16:24;;;;;;;2.88;1.60;;;24.30;99.90;;;;;;4157947;28;20216;-81
2022/06/30 03:18:26;;;;;;;2.58;1.63;;;24.30;99.90;;;;;;4162642;28;20738;-82
2022/06/30 03:20:29;;;;;;;2.33;1.70;;;24.40;99.90;;;;;;4158314;28;20228;-81
2022/06/30 03:22:31;;;;;;;2.05;1.52;;;24.30;99.90;;;;;;4155945;28;20252;-81
2022/06/30 03:24:34;;;;;;;2.90;1.63;;;24.30;99.90;;;;;;4152790;28;20221;-81
2022/06/30 03:26:37;;;;;;;1.60;1.38;;;24.30;99.90;;;;;;4149243;28;20225;-81
2022/06/30 03:28:39;;;;;;;2.85;1.50;;;24.30;99.90;;;;;;4159567;28;20220;-81
2022/06/30 03:30:45;;;;;;;2.03;1.60;;;24.30;99.90;;;;;;4154261;28;20213;-81
2022/06/30 03:32:48;;;;;;;2.22;1.60;;;24.30;99.90;;;;;;4153536;28;20258;-82
2022/06/30 03:34:51;;;;;;;2.28;1.60;;;24.30;99.90;;;;;;4155610;28;20287;-82
2022/06/30 03:36:53;;;;;;;2.47;1.50;;;24.30;99.90;;;;;;4147193;28;20217;-82
2022/06/30 03:38:55;;;;;;;1.88;1.50;;;24.30;99.90;;;;;;4160411;28;20661;-82
2022/06/30 03:40:57;;;;;;;3.08;1.58;;;24.30;99.90;;;;;;4157501;28;20645;-82
2022/06/30 03:43:00;;;;;;;2.33;1.55;;;24.30;99.90;;;;;;4166177;28;20657;-82
2022/06/30 03:45:02;;;;;;;2.83;1.60;;;24.20;99.90;;;;;;4165646;28;20221;-82
2022/06/30 03:47:05;;;;;;;3.10;1.73;;;24.30;99.90;;;;;;4166263;28;20267;-82
2022/06/30 03:49:09;;;;;;;3.30;1.60;;;24.30;99.90;;;;;;4157534;28;20601;-77
2022/06/30 03:51:11;;;;;;;2.13;1.60;;;24.20;99.90;;;;;;4150163;28;20267;-76
2022/06/30 03:53:14;;;;;;;1.75;1.40;;;24.30;99.90;;;;;;4155602;28;20286;-77
2022/06/30 03:55:17;;;;;;;3.70;1.38;;;24.20;99.90;;;;;;4155931;28;20294;-77
2022/06/30 03:57:19;;;;;;;3.97;1.52;;;24.20;99.90;;;;;;4160394;28;20613;-77
2022/06/30 03:59:21;;;;;;;3.05;1.60;;;24.20;99.90;;;;;;4159790;28;20273;-77
2022/06/30 04:01:23;;;;;;;2.33;1.40;;;24.20;99.90;;;;;;4148457;28;20288;-77
2022/06/30 04:03:26;;;;;;;2.55;1.38;;;24.20;99.90;;;;;;4157654;28;20229;-77
2022/06/30 04:05:29;;;;;;;2.78;1.75;;;24.20;99.90;;;;;;4152794;28;20213;-76
2022/06/30 04:07:32;;;;;;;2.90;1.50;;;24.20;99.90;;;;;;4149569;28;20213;-77
2022/06/30 04:09:34;;;;;;;2.65;1.38;;;24.20;99.90;;;;;;4157592;28;20275;-77
2022/06/30 04:11:36;;;;;;;2.65;1.70;;;24.20;99.90;;;;;;4149314;28;20268;-77
2022/06/30 04:13:39;;;;;;;3.95;1.75;;;24.20;99.90;;;;;;4164142;28;20223;-76
2022/06/30 04:15:41;;;;;;;2.45;1.60;;;24.20;99.90;;;;;;4163871;28;20216;-77
2022/06/30 04:17:43;;;;;;;2.38;1.42;;;24.20;99.90;;;;;;4151942;28;20213;-76
2022/06/30 04:19:45;;;;;;;2.08;1.30;;;24.20;99.90;;;;;;4157749;28;20228;-77
2022/06/30 04:21:49;;;;;;;2.38;1.60;;;24.20;99.90;;;;;;4154309;28;20303;-77
2022/06/30 04:23:51;;;;;;;2.85;1.27;;;24.20;99.90;;;;;;4151331;28;20247;-77
2022/06/30 04:25:53;;;;;;;2.88;1.85;;;24.20;99.90;;;;;;4147663;28;20221;-77
2022/06/30 04:27:58;;;;;;;2.63;1.67;;;24.20;99.90;;;;;;4159765;28;20224;-76
2022/06/30 04:30:00;;;;;;;1.98;1.38;;;24.20;99.90;;;;;;4158310;28;20267;-77
2022/06/30 04:34:22;;;;;;;2.35;1.50;;;24.20;99.90;;;;;;4149629;28;20197;-77
2022/06/30 04:36:25;;;;;;;3.63;1.83;;;24.20;99.90;;;;;;4152521;28;20654;-76
2022/06/30 04:38:28;;;;;;;2.00;1.42;;;24.20;99.90;;;;;;4156781;28;20617;-77
2022/06/30 04:42:51;;;;;;;1.92;1.65;;;24.20;99.90;;;;;;4152167;28;20660;-76
2022/06/30 04:44:54;;;;;;;3.25;1.58;;;24.10;99.90;;;;;;4156161;28;20630;-77
2022/06/30 04:46:56;;;;;;;2.65;1.30;;;24.20;99.90;;;;;;4157887;28;20953;-77
2022/06/30 04:48:58;;;;;;;2.95;1.67;;;24.10;99.90;;;;;;4153075;28;20215;-76
2022/06/30 04:51:01;;;;;;;3.30;1.67;;;24.20;99.90;;;;;;4147965;28;20217;-76
2022/06/30 04:53:03;;;;;;;2.40;1.52;;;24.20;99.90;;;;;;4152800;28;20232;-76
2022/06/30 04:55:08;;;;;;;2.25;1.42;;;24.20;99.90;;;;;;4158713;28;20216;-77
2022/06/30 04:57:10;;;;;;;3.15;1.75;;;24.20;99.90;;;;;;4153333;28;20220;-77
2022/06/30 04:59:13;;;;;;;2.30;1.67;;;24.20;99.90;;;;;;4158706;28;20217;-77
2022/06/30 05:01:15;;;;;;;2.67;1.70;;;24.10;99.90;;;;;;4154543;28;20216;-77
2022/06/30 05:03:18;;;;;;;1.88;1.23;;;24.10;99.90;;;;;;4158704;28;20727;-77
2022/06/30 05:05:20;;;;;;;2.95;1.60;;;24.10;99.90;;;;;;4156316;28;20263;-77
2022/06/30 05:07:23;;;;;;;1.95;1.50;;;24.10;99.90;;;;;;4155432;28;20572;-76
2022/06/30 05:09:25;;;;;;;3.78;1.90;;;24.10;99.90;;;;;;4157571;28;20279;-77
2022/06/30 05:11:28;;;;;;;3.13;1.60;;;24.20;99.90;;;;;;4161174;28;20220;-77
2022/06/30 05:13:31;;;;;;;2.58;1.40;;;24.10;99.90;;;;;;4155524;28;20597;-77
2022/06/30 05:15:33;;;;;;;1.63;1.25;;;24.20;99.90;;;;;;4150583;28;20217;-76
2022/06/30 05:17:36;;;;;;;2.65;1.30;;;24.20;99.90;;;;;;4155567;28;20216;-77
2022/06/30 05:19:39;;;;;;;2.85;1.60;;;24.20;99.90;;;;;;4150452;28;20279;-77
2022/06/30 05:21:41;;;;;;;2.60;1.30;;;24.20;99.90;;;;;;4149088;28;20236;-77
2022/06/30 05:26:28;;;;;;;2.65;1.52;;;24.20;99.90;;;;;;4157867;28;20271;-77
2022/06/30 05:28:26;;;;;;;1.67;1.30;;;24.20;99.90;;;;;;4157315;28;20644;-77
2022/06/30 05:30:28;;;;;;;3.30;1.50;;;24.20;99.90;;;;;;4162696;28;20270;-77
2022/06/30 05:32:31;;;;;;;2.63;1.38;;;24.20;99.90;;;;;;4162833;28;20266;-76
2022/06/30 05:34:33;;;;;;;2.40;1.30;;;24.20;99.90;;;;;;4157200;28;20646;-77
2022/06/30 05:36:36;;;;;;;2.47;1.40;;;24.20;99.90;;;;;;4153858;28;20259;-77
2022/06/30 05:38:38;;;;;;;4.35;1.60;;;24.20;99.90;;;;;;4162015;28;20673;-77
2022/06/30 05:40:41;;;;;;;2.10;1.23;;;24.20;99.90;;;;;;4147229;28;20225;-77
2022/06/30 05:42:43;;;;;;;3.88;1.40;;;24.20;99.90;;;;;;4149265;28;20240;-77
2022/06/30 05:44:47;;;;;;;1.75;1.30;;;24.20;99.90;;;;;;4155353;28;20623;-76
2022/06/30 05:46:49;;;;;;;3.53;1.67;;;24.20;99.90;;;;;;4150681;28;20208;-77
2022/06/30 05:48:52;;;;;;;3.55;1.35;;;24.20;99.90;;;;;;4150158;28;20278;-77
2022/06/30 05:50:54;;;;;;;4.95;1.48;;;24.20;99.90;;;;;;4158060;28;20220;-77
2022/06/30 05:52:57;;;;;;;2.95;1.70;;;24.20;99.90;;;;;;4160673;28;20262;-77
2022/06/30 05:54:59;;;;;;;2.88;1.30;;;24.20;99.90;;;;;;4150832;28;20354;-77
2022/06/30 05:57:01;;;;;;;2.70;1.60;;;24.20;99.90;;;;;;4146836;28;20267;-77
2022/06/30 05:59:04;;;;;;;3.13;1.63;;;24.20;99.90;;;;;;4159486;28;20228;-77
2022/06/30 06:01:07;;;;;;;2.88;1.55;;;24.20;99.90;;;;;;4156878;28;20213;-77
2022/06/30 06:03:10;;;;;;;1.40;1.23;;;24.20;99.90;;;;;;4153089;28;20286;-76
2022/06/30 06:05:12;;;;;;;1.55;1.23;;;24.20;99.90;;;;;;4156250;28;20650;-76
2022/06/30 06:07:15;;;;;;;2.80;1.40;;;24.20;99.90;;;;;;4153154;28;20282;-76
2022/06/30 06:09:17;;;;;;;3.28;1.40;;;24.20;99.90;;;;;;4153543;28;20294;-77
2022/06/30 06:11:19;;;;;;;1.95;1.23;;;24.20;99.90;;;;;;4161952;28;20220;-77
2022/06/30 06:13:22;;;;;;;2.38;1.30;;;24.20;99.90;;;;;;4148230;28;20221;-76
2022/06/30 06:15:24;;;;;;;2.75;1.48;;;24.30;99.90;;;;;;4154612;28;20628;-76
2022/06/30 06:17:29;;;;;;;2.08;1.42;;;24.20;99.90;;;;;;4157278;28;20274;-76
2022/06/30 06:19:31;;;;;;;2.05;1.40;;;24.20;99.90;;;;;;4151245;28;20264;-77
2022/06/30 06:21:36;;;;;;;3.15;1.38;;;24.30;99.90;;;;;;4148321;28;20634;-77
2022/06/30 06:23:38;;;;;;;2.53;1.42;;;24.20;99.90;;;;;;4152106;28;20299;-77
2022/06/30 06:25:40;;;;;;;5.78;1.40;;;24.20;99.90;;;;;;4152978;28;20368;-77
2022/06/30 06:29:05;;;;;;;2.33;1.27;;;24.30;99.90;;;;;;4151033;28;20653;-76
2022/06/30 06:30:07;;;;;;;2.47;1.38;;;24.20;99.90;;;;;;4150707;28;20320;-76
2022/06/30 06:32:10;;;;;;;3.53;1.35;;;24.20;99.90;;;;;;4146046;28;20221;-77
2022/06/30 06:34:13;;;;;;;2.22;1.20;;;24.30;99.90;;;;;;4155649;28;20272;-76
2022/06/30 06:36:16;;;;;;;2.78;1.27;;;24.30;99.90;;;;;;4146935;28;20282;-77
2022/06/30 06:38:18;;;;;;;3.38;1.40;;;24.20;99.90;;;;;;4149432;28;20263;-77
2022/06/30 06:40:20;;;;;;;2.58;1.60;;;24.30;99.90;;;;;;4161242;28;20287;-76
2022/06/30 06:42:23;;;;;;;1.67;1.38;;;24.20;99.90;;;;;;4150741;28;20256;-76
2022/06/30 06:44:25;;;;;;;3.13;1.30;;;24.30;99.90;;;;;;4161472;28;20224;-77
2022/06/30 06:46:27;;;;;;;4.32;1.50;;;24.30;99.90;;;;;;4161292;28;20228;-77
2022/06/30 06:48:30;;;;;;;3.33;1.45;;;24.30;99.90;;;;;;4161497;28;20281;-76
2022/06/30 06:50:33;;;;;;;2.78;1.45;;;24.30;99.90;;;;;;4157100;28;20217;-77
2022/06/30 06:52:36;;;;;;;2.80;1.30;;;24.30;99.90;;;;;;4160326;28;20278;-76
2022/06/30 06:54:38;;;;;;;1.48;1.10;;;24.30;99.90;;;;;;4148086;28;20224;-76
2022/06/30 06:56:41;;;;;;;2.85;1.67;;;24.30;99.90;;;;;;4158068;28;20220;-76
2022/06/30 06:58:43;;;;;;;2.53;1.38;;;24.30;99.90;;;;;;4158046;28;20323;-77
2022/06/30 07:00:46;;;;;;;1.55;1.10;;;24.30;99.90;;;;;;4148496;28;20271;-76
2022/06/30 07:02:49;;;;;;;2.85;1.30;;;24.30;99.90;;;;;;4161354;28;20262;-76
2022/06/30 07:04:51;;;;;;;2.05;1.40;;;24.30;99.90;;;;;;4157332;28;20298;-76
2022/06/30 07:06:54;;;;;;;4.28;1.42;;;24.30;99.90;;;;;;4159110;28;20239;-77
2022/06/30 07:08:58;;;;;;;2.70;1.27;;;24.40;99.90;;;;;;4154696;28;20723;-76
2022/06/30 07:11:02;;;;;;;5.57;1.80;;;24.30;99.90;;;;;;4155218;28;20324;-77
2022/06/30 07:13:05;;;;;;;2.90;1.25;;;24.20;99.90;;;;;;4163977;28;20620;-77
2022/06/30 07:15:09;;;;;;;3.10;1.35;;;24.10;99.90;;;;;;4155022;28;20258;-77
2022/06/30 07:17:12;;;;;;;4.65;1.35;;;24.10;99.90;;;;;;4159326;28;20681;-77
2022/06/30 07:19:14;;;;;;;3.35;1.52;;;24.00;99.90;;;;;;4154375;28;20270;-78
2022/06/30 07:21:17;;;;;;;3.63;1.30;;;23.90;99.90;;;;;;4156544;28;20216;-77
2022/06/30 07:23:21;;;;;;;6.75;1.88;;;23.90;99.90;;;;;;4159863;28;20654;-77
2022/06/30 07:25:23;;;;;;;2.60;1.42;;;23.90;99.90;;;;;;4158053;28;20263;-79
2022/06/30 07:27:26;;;;;;;3.88;1.67;;;23.90;99.90;;;;;;4153617;28;20263;-79
2022/06/30 07:29:30;;;;;;;6.18;1.90;;;23.70;99.90;;;;;;4157226;28;20220;-78
2022/06/30 07:31:33;;;;;;;4.18;2.08;;;23.50;99.90;;;;;;4155040;28;20209;-77
2022/06/30 07:33:39;;;;;;;4.78;2.00;;;23.40;99.90;;;;;;4151480;28;20204;-77
2022/06/30 07:35:42;;;;;;;4.50;1.90;;;23.20;99.90;;;;;;4152662;28;20274;-78
2022/06/30 07:37:44;;;;;;;6.80;2.30;;;23.20;99.90;;;;;;4158828;28;20217;-78
2022/06/30 07:39:48;;;;;;;6.55;2.25;;;23.20;99.90;;;;;;4156728;28;20270;-78
2022/06/30 07:41:51;;;;;;;6.43;2.17;;;23.10;99.90;;;;;;4160056;28;20220;-78
2022/06/30 07:43:53;;;;;;;7.38;1.90;;;23.10;99.90;;;;;;4156427;28;20236;-77
2022/06/30 07:45:56;;;;;;;8.05;2.30;;;23.10;99.90;;;;;;4154255;28;20250;-76
2022/06/30 07:47:58;;;;;;;9.65;2.83;;;23.10;99.90;;;;;;4155546;28;20275;-79
2022/06/30 07:50:01;;;;;;;6.65;2.00;;;23.10;99.90;;;;;;4157482;28;20259;-78
2022/06/30 07:52:03;;;;;;;8.85;2.30;;;23.00;99.90;;;;;;4155580;28;20216;-78
2022/06/30 07:54:06;;;;;;;11.02;2.17;;;23.10;99.90;;;;;;4148311;28;20276;-76
2022/06/30 07:56:13;;;;;;;7.55;2.38;;;23.10;99.90;;;;;;4158267;28;20213;-77
2022/06/30 07:58:15;;;;;;;3.72;2.00;;;23.10;99.90;;;;;;4160919;28;20216;-79
2022/06/30 08:00:24;;;;;;;4.35;2.28;;;23.10;99.90;;;;;;4154262;28;20217;-77
2022/06/30 08:02:26;;;;;;;7.13;2.40;;;23.20;99.90;;;;;;4151102;28;20270;-77
2022/06/30 08:04:29;;;;;;;7.22;2.45;;;23.20;99.90;;;;;;4142266;28;20240;-77
2022/06/30 08:06:31;;;;;;;6.68;2.10;;;23.30;99.90;;;;;;4152474;28;20734;-76
2022/06/30 08:08:33;;;;;;;7.70;2.33;;;23.30;99.90;;;;;;4153587;28;20290;-76
2022/06/30 08:10:36;;;;;;;6.57;2.63;;;23.30;99.90;;;;;;4156658;28;20204;-76
2022/06/30 08:12:41;;;;;;;7.82;2.53;;;23.30;99.90;;;;;;4155371;28;20267;-76
2022/06/30 08:14:44;;;;;;;10.63;2.83;;;23.40;99.90;;;;;;4158953;28;20274;-77
2022/06/30 08:16:46;;;;;;;9.60;2.60;;;23.50;99.90;;;;;;4155489;28;20266;-76
2022/06/30 08:18:48;;;;;;;6.65;2.50;;;23.50;99.90;;;;;;4148900;28;20271;-76
2022/06/30 08:20:51;;;;;;;8.65;2.28;;;23.50;99.90;;;;;;4149936;28;20217;-78
2022/06/30 08:22:54;;;;;;;6.05;2.38;;;23.50;99.90;;;;;;4157720;28;20283;-76
2022/06/30 08:24:57;;;;;;;9.05;2.50;;;23.60;99.90;;;;;;4161339;28;20294;-76
2022/06/30 08:27:02;;;;;;;5.03;2.78;;;23.70;99.90;;;;;;4155278;28;20271;-76
2022/06/30 08:29:05;;;;;;;8.27;2.25;;;23.70;99.90;;;;;;4153499;28;20688;-76
2022/06/30 08:31:08;;;;;;;6.35;2.15;;;23.60;99.90;;;;;;4156374;28;20302;-76
2022/06/30 08:33:10;;;;;;;5.60;2.30;;;23.60;99.90;;;;;;4153354;28;20290;-76
2022/06/30 08:35:13;;;;;;;5.80;1.98;;;23.50;99.90;;;;;;4155134;28;20275;-76
2022/06/30 08:37:16;;;;;;;6.55;2.00;;;23.60;99.90;;;;;;4150914;28;20318;-76
2022/06/30 08:44:08;;;;;;;5.40;1.95;;;23.80;99.90;;;;;;4118877;28;20288;-75
2022/06/30 08:46:12;;;;;;;7.95;2.20;;;23.80;99.90;;;;;;4157434;28;20224;-76
2022/06/30 08:48:14;;;;;;;7.55;2.33;;;23.80;99.90;;;;;;4155895;28;20677;-75
2022/06/30 08:50:19;;;;;;;4.93;2.20;;;23.90;99.90;;;;;;4151511;28;20275;-76
2022/06/30 08:52:22;;;;;;;6.43;2.20;;;23.80;99.90;;;;;;4151024;28;20263;-76
2022/06/30 08:54:26;;;;;;;7.57;2.15;;;23.80;99.90;;;;;;4151004;28;20316;-79
2022/06/30 08:56:31;;;;;;;7.03;2.15;;;23.80;99.90;;;;;;4153951;28;20290;-77
2022/06/30 08:58:34;;;;;;;5.55;2.38;;;23.90;99.90;;;;;;4156533;28;20221;-76
2022/06/30 09:00:39;;;;;;;7.38;2.60;;;23.90;99.90;;;;;;4152818;28;20278;-79
2022/06/30 09:02:42;;;;;;;11.52;2.45;;;23.80;99.90;;;;;;4150248;28;20374;-76
2022/06/30 09:04:45;;;;;;;7.65;2.35;;;23.80;99.90;;;;;;4156944;28;20274;-77
2022/06/30 09:06:48;;;;;;;10.70;2.75;;;23.70;99.90;;;;;;4155492;28;20216;-76
2022/06/30 09:08:51;;;;;;;8.05;2.15;;;23.80;99.90;;;;;;4154541;28;20274;-76
2022/06/30 09:10:55;;;;;;;7.68;2.70;;;23.80;99.90;;;;;;4158203;28;20216;-77
2022/06/30 09:13:01;;;;;;;5.07;2.45;;;23.90;99.90;;;;;;4153049;28;20224;-77
2022/06/30 09:15:04;;;;;;;5.45;2.25;;;23.90;99.90;;;;;;4159378;28;20275;-78
2022/06/30 09:17:11;;;;;;;5.20;2.55;;;23.90;99.90;;;;;;4152159;28;20216;-78
2022/06/30 09:19:13;;;;;;;14.75;2.63;;;24.00;99.90;;;;;;4158065;28;20278;-78
2022/06/30 09:21:17;;;;;;;6.15;2.67;;;24.00;99.90;;;;;;4160211;28;20274;-77
2022/06/30 09:23:21;;;;;;;12.45;3.38;;;24.00;99.90;;;;;;4154947;28;20279;-77
2022/06/30 09:25:31;;;;;;;25.83;4.30;;;24.00;99.90;;;;;;4154339;28;20239;-76
2022/06/30 09:27:35;;;;;;;7.20;2.70;;;24.00;99.90;;;;;;4155859;28;20270;-76
2022/06/30 09:29:50;;;;;;;8.32;2.80;;;24.10;99.90;;;;;;4155494;28;20263;-77
2022/06/30 09:31:52;;;;;;;11.10;2.92;;;24.10;99.90;;;;;;4157428;28;20216;-75
2022/06/30 09:33:56;;;;;;;12.73;3.03;;;24.00;99.90;;;;;;4155605;28;20209;-76
2022/06/30 09:36:19;;;;;;;9.85;2.38;;;24.10;99.90;;;;;;4156276;28;20220;-75
2022/06/30 09:38:21;;;;;;;5.75;2.67;;;24.00;99.90;;;;;;4156959;28;20350;-75
2022/06/30 09:40:29;;;;;;;8.48;2.50;;;24.10;99.90;;;;;;4151430;28;20630;-76
2022/06/30 09:42:40;;;;;;;8.63;3.00;;;24.10;99.90;;;;;;4146263;28;20213;-76
2022/06/30 09:44:49;;;;;;;12.50;3.00;;;24.00;99.90;;;;;;4151871;28;20237;-78
2022/06/30 09:46:59;;;;;;;5.63;2.50;;;24.00;99.90;;;;;;4154816;28;20216;-75
2022/06/30 09:49:03;;;;;;;15.05;3.13;;;24.00;99.90;;;;;;4153177;28;20216;-76
2022/06/30 09:51:06;;;;;;;11.35;3.10;;;24.00;99.90;;;;;;4150382;28;20266;-78
2022/06/30 09:53:15;;;;;;;10.23;2.55;;;24.00;99.90;;;;;;4154197;28;20353;-77
2022/06/30 09:55:17;;;;;;;8.68;2.35;;;23.90;99.90;;;;;;4152665;28;20209;-75
2022/06/30 09:57:19;;;;;;;11.20;2.60;;;24.00;99.90;;;;;;4156955;28;20204;-75
2022/06/30 09:59:25;;;;;;;5.47;2.30;;;24.00;99.90;;;;;;4153453;28;20319;-76
2022/06/30 10:01:27;;;;;;;7.82;2.10;;;24.00;99.90;;;;;;4151565;28;20212;-75
2022/06/30 10:03:30;;;;;;;3.40;1.63;;;23.90;99.90;;;;;;4151767;28;20263;-75
2022/06/30 10:05:33;;;;;;;7.38;2.30;;;23.90;99.90;;;;;;4156719;28;20283;-76
2022/06/30 10:07:38;;;;;;;9.75;2.47;;;23.90;99.90;;;;;;4152936;28;20229;-74
2022/06/30 10:09:43;;;;;;;9.18;2.00;;;23.80;99.90;;;;;;4154414;28;20302;-74
2022/06/30 10:11:47;;;;;;;9.20;2.00;;;23.90;99.90;;;;;;4151311;28;20204;-75
2022/06/30 10:13:49;;;;;;;4.45;1.63;;;23.80;99.90;;;;;;4156109;28;20216;-75
2022/06/30 10:15:55;;;;;;;5.03;1.77;;;23.80;99.90;;;;;;4151972;28;20286;-75
2022/06/30 10:17:58;;;;;;;4.43;1.50;;;23.80;99.90;;;;;;4153363;28;20216;-75
2022/06/30 10:20:00;;;;;;;7.13;1.90;;;23.90;99.90;;;;;;4156887;28;20274;-75
2022/06/30 10:22:05;;;;;;;5.35;1.70;;;23.80;99.90;;;;;;4147315;28;20316;-75
2022/06/30 10:24:08;;;;;;;4.35;1.60;;;23.70;99.90;;;;;;4150726;28;20220;-76
2022/06/30 10:27:12;;;;;;;4.70;1.90;;;23.70;99.90;;;;;;4157308;28;20216;-75
2022/06/30 10:28:34;;;;;;;3.88;1.50;;;23.70;99.90;;;;;;4153393;28;20278;-74
2022/06/30 10:30:47;;;;;;;5.55;1.83;;;23.50;99.90;;;;;;4153596;28;20234;-75
2022/06/30 10:32:59;;;;;;;9.73;2.13;;;23.50;99.90;;;;;;4154354;28;20286;-75
2022/06/30 10:35:10;;;;;;;13.25;2.80;;;23.50;99.90;;;;;;4152833;28;20619;-75
2022/06/30 10:37:25;;;;;;;10.93;1.90;;;23.50;99.90;;;;;;4144569;28;20278;-76
2022/06/30 10:39:38;;;;;;;9.82;2.42;;;23.50;99.90;;;;;;4152852;28;20212;-76
2022/06/30 10:41:45;;;;;;;10.68;2.72;;;23.40;99.90;;;;;;4153483;28;20212;-75
2022/06/30 10:44:14;;;;;;;9.48;2.40;;;23.30;99.90;;;;;;4156553;28;20224;-74
2022/06/30 10:46:17;;;;;;;12.27;2.53;;;23.30;99.90;;;;;;4139952;28;20213;-74
2022/06/30 10:48:19;;;;;;;27.30;3.88;;;23.30;99.90;;;;;;4150891;28;20208;-80
2022/06/30 10:50:31;;;;;;;13.65;3.22;;;23.20;99.90;;;;;;4150914;28;20216;-82
2022/06/30 10:52:35;;;;;;;17.88;3.35;;;23.20;99.90;;;;;;4150573;28;20310;-78
2022/06/30 10:54:44;;;;;;;18.00;2.97;;;23.30;99.90;;;;;;4151461;28;20347;-79
2022/06/30 10:56:56;;;;;;;10.82;2.47;;;23.30;99.90;;;;;;4150423;28;20262;-79